Time;durP1;ratioP1;P1;durP2;ratioP2;P2;SDS_P1;SDS_P2;PMS_P1;PMS_P2;Temp;Humidity;BMP_temperature;BMP_pressure;BME280_temperature;BME280_humidity;BME280_pressure;Samples;Min_cycle;Max_cycle;Signal;HPM_P1;HPM_P2
2022/11/09 00:02:22;;;;;;;;;;;;;;;;;;7367534;19;843;-62
2022/11/09 00:04:50;;;;;;;;;;;;;;;;;;7368469;19;804;-62
2022/11/09 00:07:18;;;;;;;;;;;;;;;;;;7369809;19;1465;-62
2022/11/09 00:09:46;;;;;;;;;;;;;;;;;;7367542;19;1273;-62
2022/11/09 00:12:14;;;;;;;;;;;;;;;;;;7368120;19;815;-60
2022/11/09 00:14:42;;;;;;;;;;;;;;;;;;7367165;19;1813;-62
2022/11/09 00:17:11;;;;;;;;;;;;;;;;;;7369077;19;872;-62
2022/11/09 00:19:39;;;;;;;;;;;;;;;;;;7367467;19;1308;-62
2022/11/09 00:22:07;;;;;;;;;;;;;;;;;;7367586;19;809;-63
2022/11/09 00:24:35;;;;;;;;;;;;;;;;;;7369557;19;811;-64
2022/11/09 00:27:03;;;;;;;;;;;;;;;;;;7372352;19;1575;-62
2022/11/09 00:29:31;;;;;;;;;;;;;;;;;;7368338;19;823;-63
2022/11/09 00:31:59;;;;;;;;;;;;;;;;;;7368789;19;1250;-62
2022/11/09 00:34:28;;;;;;;;;;;;;;;;;;7376129;19;1838;-62
2022/11/09 00:36:56;;;;;;;;;;;;;;;;;;7377992;19;790;-60
2022/11/09 00:39:24;;;;;;;;;;;;;;;;;;7376134;19;878;-61
2022/11/09 00:41:52;;;;;;;;;;;;;;;;;;7375075;19;1282;-65
2022/11/09 00:44:20;;;;;;;;;;;;;;;;;;7382442;19;819;-65
2022/11/09 00:46:48;;;;;;;;;;;;;;;;;;7380450;19;859;-66
2022/11/09 00:49:16;;;;;;;;;;;;;;;;;;7372678;19;838;-61
2022/11/09 00:51:45;;;;;;;;;;;;;;;;;;7373463;19;1817;-64
2022/11/09 00:54:13;;;;;;;;;;;;;;;;;;7376879;19;1808;-63
2022/11/09 00:56:41;;;;;;;;;;;;;;;;;;7371322;19;1835;-63
2022/11/09 00:59:10;;;;;;;;;;;;;;;;;;7371590;19;784;-63
2022/11/09 01:01:39;;;;;;;;;;;;;;;;;;7370295;19;1304;-63
2022/11/09 01:04:07;;;;;;;;;;;;;;;;;;7372635;19;839;-61
2022/11/09 01:06:35;;;;;;;;;;;;;;;;;;7377033;19;1573;-64
2022/11/09 01:09:03;;;;;;;;;;;;;;;;;;7375830;19;839;-62
2022/11/09 01:11:37;;;;;;;;;;;;;;;;;;7374250;19;1455;-62
2022/11/09 01:14:05;;;;;;;;;;;;;;;;;;7377428;19;711;-65
2022/11/09 01:16:33;;;;;;;;;;;;;;;;;;7373914;19;1875;-65
2022/11/09 01:19:01;;;;;;;;;;;;;;;;;;7372194;19;806;-66
2022/11/09 01:21:29;;;;;;;;;;;;;;;;;;7370454;19;1267;-62
2022/11/09 01:24:00;;;;;;;;;;;;;;;;;;7370983;19;753;-61
2022/11/09 01:26:29;;;;;;;;;;;;;;;;;;7371229;19;1666;-62
2022/11/09 01:28:57;;;;;;;;;;;;;;;;;;7370165;19;855;-63
2022/11/09 01:31:26;;;;;;;;;;;;;;;;;;7369367;19;1344;-60
2022/11/09 01:33:54;;;;;;;;;;;;;;;;;;7372331;19;811;-62
2022/11/09 01:36:22;;;;;;;;;;;;;;;;;;7369690;19;1841;-64
2022/11/09 01:38:51;;;;;;;;;;;;;;;;;;7370723;19;768;-60
2022/11/09 01:41:19;;;;;;;;;;;;;;;;;;7372487;19;1831;-63
2022/11/09 01:43:47;;;;;;;;;;;;;;;;;;7371875;19;812;-60
2022/11/09 01:46:15;;;;;;;;;;;;;;;;;;7372603;19;894;-63
2022/11/09 01:48:43;;;;;;;;;;;;;;;;;;7371363;19;802;-62
2022/11/09 01:51:12;;;;;;;;;;;;;;;;;;7369595;19;1236;-62
2022/11/09 01:53:40;;;;;;;;;;;;;;;;;;7371163;19;977;-65
2022/11/09 01:56:09;;;;;;;;;;;;;;;;;;7370522;19;1845;-61
2022/11/09 01:58:37;;;;;;;;;;;;;;;;;;7370509;19;736;-62
2022/11/09 02:01:09;;;;;;;;;;;;;;;;;;7370629;19;1369;-62
2022/11/09 02:03:38;;;;;;;;;;;;;;;;;;7370401;19;721;-62
2022/11/09 02:06:06;;;;;;;;;;;;;;;;;;7370266;19;865;-62
2022/11/09 02:08:34;;;;;;;;;;;;;;;;;;7370800;19;809;-62
2022/11/09 02:11:03;;;;;;;;;;;;;;;;;;7369686;19;1275;-63
2022/11/09 02:13:31;;;;;;;;;;;;;;;;;;7369494;19;760;-63
2022/11/09 02:16:04;;;;;;;;;;;;;;;;;;7368350;19;1845;-63
2022/11/09 02:18:33;;;;;;;;;;;;;;;;;;7369182;19;768;-63
2022/11/09 02:21:02;;;;;;;;;;;;;;;;;;7368802;19;1295;-63
2022/11/09 02:23:30;;;;;;;;;;;;;;;;;;7370764;19;800;-62
2022/11/09 02:25:59;;;;;;;;;;;;;;;;;;7368597;19;1797;-63
2022/11/09 02:28:27;;;;;;;;;;;;;;;;;;7372152;19;824;-60
2022/11/09 02:30:55;;;;;;;;;;;;;;;;;;7366877;19;1328;-61
2022/11/09 02:33:24;;;;;;;;;;;;;;;;;;7368063;19;862;-61
2022/11/09 02:35:52;;;;;;;;;;;;;;;;;;7369078;19;1849;-62
2022/11/09 02:38:20;;;;;;;;;;;;;;;;;;7368508;19;875;-62
2022/11/09 02:40:48;;;;;;;;;;;;;;;;;;7367174;19;1341;-64
2022/11/09 02:43:17;;;;;;;;;;;;;;;;;;7369433;19;849;-61
2022/11/09 02:45:46;;;;;;;;;;;;;;;;;;7368224;19;837;-61
2022/11/09 02:48:14;;;;;;;;;;;;;;;;;;7366355;19;794;-58
2022/11/09 02:50:42;;;;;;;;;;;;;;;;;;7367565;19;1275;-60
2022/11/09 02:53:10;;;;;;;;;;;;;;;;;;7369687;19;870;-60
2022/11/09 02:55:42;;;;;;;;;;;;;;;;;;7365665;19;1958;-62
2022/11/09 02:58:10;;;;;;;;;;;;;;;;;;7370958;19;1785;-62
2022/11/09 03:00:38;;;;;;;;;;;;;;;;;;7367148;19;1345;-62
2022/11/09 03:03:06;;;;;;;;;;;;;;;;;;7370163;19;835;-62
2022/11/09 03:05:35;;;;;;;;;;;;;;;;;;7368133;19;866;-62
2022/11/09 03:08:03;;;;;;;;;;;;;;;;;;7367059;19;816;-63
2022/11/09 03:10:34;;;;;;;;;;;;;;;;;;7366546;19;1364;-62
2022/11/09 03:13:03;;;;;;;;;;;;;;;;;;7368319;19;792;-63
2022/11/09 03:15:31;;;;;;;;;;;;;;;;;;7367693;19;1811;-62
2022/11/09 03:17:59;;;;;;;;;;;;;;;;;;7369267;19;760;-64
2022/11/09 03:20:27;;;;;;;;;;;;;;;;;;7366586;19;1379;-62
2022/11/09 03:22:56;;;;;;;;;;;;;;;;;;7369084;19;799;-61
2022/11/09 03:25:24;;;;;;;;;;;;;;;;;;7368968;19;857;-58
2022/11/09 03:27:52;;;;;;;;;;;;;;;;;;7372379;19;1740;-61
2022/11/09 03:30:20;;;;;;;;;;;;;;;;;;7368385;19;1227;-63
2022/11/09 03:32:48;;;;;;;;;;;;;;;;;;7367111;19;1814;-65
2022/11/09 03:35:16;;;;;;;;;;;;;;;;;;7367161;19;1883;-62
2022/11/09 03:37:45;;;;;;;;;;;;;;;;;;7366599;19;904;-63
2022/11/09 03:40:13;;;;;;;;;;;;;;;;;;7366306;19;1330;-59
2022/11/09 03:42:41;;;;;;;;;;;;;;;;;;7366510;19;901;-66
2022/11/09 03:45:09;;;;;;;;;;;;;;;;;;7366311;19;816;-64
2022/11/09 03:47:37;;;;;;;;;;;;;;;;;;7368621;19;1553;-65
2022/11/09 03:50:05;;;;;;;;;;;;;;;;;;7367940;19;1360;-63
2022/11/09 03:52:33;;;;;;;;;;;;;;;;;;7367847;19;814;-63
2022/11/09 03:55:02;;;;;;;;;;;;;;;;;;7371763;19;1103;-62
2022/11/09 03:57:30;;;;;;;;;;;;;;;;;;7366922;19;1867;-63
2022/11/09 03:59:58;;;;;;;;;;;;;;;;;;7367206;19;1294;-64
2022/11/09 04:02:26;;;;;;;;;;;;;;;;;;7366980;19;812;-63
2022/11/09 04:04:54;;;;;;;;;;;;;;;;;;7367138;19;775;-61
2022/11/09 04:07:22;;;;;;;;;;;;;;;;;;7365342;19;815;-62
2022/11/09 04:09:50;;;;;;;;;;;;;;;;;;7366257;19;1361;-62
2022/11/09 04:12:19;;;;;;;;;;;;;;;;;;7370750;19;1818;-63
2022/11/09 04:14:47;;;;;;;;;;;;;;;;;;7367621;19;776;-60
2022/11/09 04:17:15;;;;;;;;;;;;;;;;;;7365223;19;1851;-63
2022/11/09 04:19:43;;;;;;;;;;;;;;;;;;7366907;19;1361;-64
2022/11/09 04:22:11;;;;;;;;;;;;;;;;;;7367630;19;804;-61
2022/11/09 04:24:39;;;;;;;;;;;;;;;;;;7367680;19;2054;-62
2022/11/09 04:27:08;;;;;;;;;;;;;;;;;;7367323;19;814;-62
2022/11/09 04:29:36;;;;;;;;;;;;;;;;;;7366833;19;885;-55
2022/11/09 04:32:04;;;;;;;;;;;;;;;;;;7364127;19;1409;-59
2022/11/09 04:34:32;;;;;;;;;;;;;;;;;;7366491;19;822;-57
2022/11/09 04:37:00;;;;;;;;;;;;;;;;;;7364567;19;1860;-58
2022/11/09 04:39:28;;;;;;;;;;;;;;;;;;7366736;19;807;-63
2022/11/09 04:41:56;;;;;;;;;;;;;;;;;;7362934;19;1282;-63
2022/11/09 04:44:25;;;;;;;;;;;;;;;;;;7365988;19;838;-64
2022/11/09 04:46:53;;;;;;;;;;;;;;;;;;7366061;19;806;-64
2022/11/09 04:49:21;;;;;;;;;;;;;;;;;;7363835;19;786;-63
2022/11/09 04:51:49;;;;;;;;;;;;;;;;;;7363197;19;1263;-62
2022/11/09 04:54:17;;;;;;;;;;;;;;;;;;7366944;19;1783;-59
2022/11/09 04:56:45;;;;;;;;;;;;;;;;;;7364366;19;1849;-61
2022/11/09 04:59:13;;;;;;;;;;;;;;;;;;7365889;19;983;-61
2022/11/09 05:01:41;;;;;;;;;;;;;;;;;;7363065;19;1318;-63
2022/11/09 05:04:10;;;;;;;;;;;;;;;;;;7365557;19;823;-60
2022/11/09 05:06:38;;;;;;;;;;;;;;;;;;7364815;19;826;-62
2022/11/09 05:09:06;;;;;;;;;;;;;;;;;;7364865;19;850;-62
2022/11/09 05:11:34;;;;;;;;;;;;;;;;;;7361671;19;1284;-63
2022/11/09 05:14:02;;;;;;;;;;;;;;;;;;7365776;19;824;-62
2022/11/09 05:16:31;;;;;;;;;;;;;;;;;;7362701;19;1850;-61
2022/11/09 05:18:59;;;;;;;;;;;;;;;;;;7365698;19;814;-62
2022/11/09 05:21:27;;;;;;;;;;;;;;;;;;7371293;19;1212;-63
2022/11/09 05:23:58;;;;;;;;;;;;;;;;;;7370986;19;1814;-64
2022/11/09 05:26:26;;;;;;;;;;;;;;;;;;7371434;19;853;-62
2022/11/09 05:28:56;;;;;;;;;;;;;;;;;;7370880;19;813;-61
2022/11/09 05:31:24;;;;;;;;;;;;;;;;;;7370117;19;1362;-62
2022/11/09 05:33:52;;;;;;;;;;;;;;;;;;7371546;19;863;-62
2022/11/09 05:36:20;;;;;;;;;;;;;;;;;;7370616;19;1845;-63
2022/11/09 05:38:48;;;;;;;;;;;;;;;;;;7370848;19;839;-63
2022/11/09 05:41:17;;;;;;;;;;;;;;;;;;7369405;19;1326;-61
2022/11/09 05:43:46;;;;;;;;;;;;;;;;;;7371261;19;861;-64
2022/11/09 05:46:14;;;;;;;;;;;;;;;;;;7371075;19;795;-60
2022/11/09 05:48:42;;;;;;;;;;;;;;;;;;7370583;19;860;-61
2022/11/09 05:51:10;;;;;;;;;;;;;;;;;;7369406;19;1365;-62
2022/11/09 05:53:39;;;;;;;;;;;;;;;;;;7373493;19;1684;-63
2022/11/09 05:56:07;;;;;;;;;;;;;;;;;;7374334;19;1849;-64
2022/11/09 05:58:37;;;;;;;;;;;;;;;;;;7369940;19;799;-62
2022/11/09 06:01:05;;;;;;;;;;;;;;;;;;7369588;19;1275;-60
2022/11/09 06:03:33;;;;;;;;;;;;;;;;;;7369708;19;874;-62
2022/11/09 06:06:02;;;;;;;;;;;;;;;;;;7371613;19;831;-62
2022/11/09 06:08:30;;;;;;;;;;;;;;;;;;7370221;19;836;-64
2022/11/09 06:10:58;;;;;;;;;;;;;;;;;;7369906;19;1307;-61
2022/11/09 06:13:26;;;;;;;;;;;;;;;;;;7370960;19;891;-60
2022/11/09 06:15:54;;;;;;;;;;;;;;;;;;7370359;19;802;-62
2022/11/09 06:18:22;;;;;;;;;;;;;;;;;;7367467;19;1909;-62
2022/11/09 06:20:50;;;;;;;;;;;;;;;;;;7369881;19;1266;-63
2022/11/09 06:23:18;;;;;;;;;;;;;;;;;;7368867;19;840;-62
2022/11/09 06:25:47;;;;;;;;;;;;;;;;;;7373209;19;1824;-61
2022/11/09 06:28:15;;;;;;;;;;;;;;;;;;7369062;19;807;-61
2022/11/09 06:30:43;;;;;;;;;;;;;;;;;;7366020;19;1341;-60
2022/11/09 06:33:12;;;;;;;;;;;;;;;;;;7370194;19;801;-62
2022/11/09 06:35:40;;;;;;;;;;;;;;;;;;7369728;19;870;-66
2022/11/09 06:38:08;;;;;;;;;;;;;;;;;;7366656;19;1840;-64
2022/11/09 06:40:36;;;;;;;;;;;;;;;;;;7369163;19;1348;-64
2022/11/09 06:43:04;;;;;;;;;;;;;;;;;;7373496;19;1816;-63
2022/11/09 06:45:32;;;;;;;;;;;;;;;;;;7369610;19;889;-62
2022/11/09 06:48:00;;;;;;;;;;;;;;;;;;7370195;19;794;-63
2022/11/09 06:50:29;;;;;;;;;;;;;;;;;;7369335;19;1294;-63
2022/11/09 06:52:57;;;;;;;;;;;;;;;;;;7370189;19;873;-59
2022/11/09 06:55:25;;;;;;;;;;;;;;;;;;7369948;19;889;-63
2022/11/09 06:57:53;;;;;;;;;;;;;;;;;;7369207;19;1865;-63
2022/11/09 07:00:21;;;;;;;;;;;;;;;;;;7371925;19;1298;-63
2022/11/09 07:02:49;;;;;;;;;;;;;;;;;;7374210;19;920;-63
2022/11/09 07:05:17;;;;;;;;;;;;;;;;;;7373940;19;826;-64
2022/11/09 07:07:46;;;;;;;;;;;;;;;;;;7374068;19;797;-62
2022/11/09 07:10:14;;;;;;;;;;;;;;;;;;7372952;19;1275;-62
2022/11/09 07:12:42;;;;;;;;;;;;;;;;;;7375058;19;1867;-61
2022/11/09 07:15:10;;;;;;;;;;;;;;;;;;7371237;19;812;-62
2022/11/09 07:17:40;;;;;;;;;;;;;;;;;;7369176;19;1830;-65
2022/11/09 07:20:08;;;;;;;;;;;;;;;;;;7370218;19;1296;-61
2022/11/09 07:22:38;;;;;;;;;;;;;;;;;;7370753;19;814;-62
2022/11/09 07:25:06;;;;;;;;;;;;;;;;;;7370413;19;842;-61
2022/11/09 07:27:34;;;;;;;;;;;;;;;;;;7369915;19;773;-61
2022/11/09 07:30:03;;;;;;;;;;;;;;;;;;7369991;19;1293;-60
2022/11/09 07:32:31;;;;;;;;;;;;;;;;;;7369317;19;799;-64
2022/11/09 07:34:59;;;;;;;;;;;;;;;;;;7368870;19;891;-62
2022/11/09 07:37:27;;;;;;;;;;;;;;;;;;7367965;19;1849;-63
2022/11/09 07:39:55;;;;;;;;;;;;;;;;;;7369501;19;1754;-61
2022/11/09 07:42:23;;;;;;;;;;;;;;;;;;7368812;19;880;-63
2022/11/09 07:44:52;;;;;;;;;;;;;;;;;;7368366;19;760;-66
2022/11/09 07:47:20;;;;;;;;;;;;;;;;;;7368914;19;783;-66
2022/11/09 07:49:48;;;;;;;;;;;;;;;;;;7367581;19;1282;-64
2022/11/09 07:52:16;;;;;;;;;;;;;;;;;;7369278;19;816;-64
2022/11/09 07:54:44;;;;;;;;;;;;;;;;;;7369207;19;838;-61
2022/11/09 07:57:12;;;;;;;;;;;;;;;;;;7367505;19;1857;-62
2022/11/09 07:59:41;;;;;;;;;;;;;;;;;;7367417;19;866;-64
2022/11/09 08:02:09;;;;;;;;;;;;;;;;;;7368997;19;846;-62
2022/11/09 08:04:37;;;;;;;;;;;;;;;;;;7368219;19;1837;-62
2022/11/09 08:07:05;;;;;;;;;;;;;;;;;;7370107;19;884;-63
2022/11/09 08:09:34;;;;;;;;;;;;;;;;;;7370572;19;1884;-59
2022/11/09 08:12:02;;;;;;;;;;;;;;;;;;7366209;19;1301;-61
2022/11/09 08:14:30;;;;;;;;;;;;;;;;;;7373023;19;807;-63
2022/11/09 08:16:58;;;;;;;;;;;;;;;;;;7369602;19;1842;-63
2022/11/09 08:19:26;;;;;;;;;;;;;;;;;;7369393;19;887;-61
2022/11/09 08:21:56;;;;;;;;;;;;;;;;;;7365562;19;1321;-62
2022/11/09 08:24:24;;;;;;;;;;;;;;;;;;7369418;19;758;-63
2022/11/09 08:26:52;;;;;;;;;;;;;;;;;;7368552;19;850;-63
2022/11/09 08:29:21;;;;;;;;;;;;;;;;;;7366377;19;862;-64
2022/11/09 08:31:49;;;;;;;;;;;;;;;;;;7365151;19;1262;-63
2022/11/09 08:34:17;;;;;;;;;;;;;;;;;;7368761;19;839;-65
2022/11/09 08:36:45;;;;;;;;;;;;;;;;;;7368965;19;1849;-67
2022/11/09 08:39:14;;;;;;;;;;;;;;;;;;7367600;19;1818;-64
2022/11/09 08:41:42;;;;;;;;;;;;;;;;;;7365102;19;1275;-64
2022/11/09 08:44:10;;;;;;;;;;;;;;;;;;7366321;19;859;-65
2022/11/09 08:46:38;;;;;;;;;;;;;;;;;;7368121;19;815;-63
2022/11/09 08:49:06;;;;;;;;;;;;;;;;;;7365910;19;840;-63
2022/11/09 08:51:34;;;;;;;;;;;;;;;;;;7363934;19;1350;-64
2022/11/09 08:54:03;;;;;;;;;;;;;;;;;;7369951;19;840;-63
2022/11/09 08:56:31;;;;;;;;;;;;;;;;;;7376137;19;852;-64
2022/11/09 08:58:59;;;;;;;;;;;;;;;;;;7373478;19;1841;-64
2022/11/09 09:01:27;;;;;;;;;;;;;;;;;;7373311;19;1330;-62
2022/11/09 09:03:55;;;;;;;;;;;;;;;;;;7374512;19;827;-60
2022/11/09 09:06:23;;;;;;;;;;;;;;;;;;7375338;19;849;-57
2022/11/09 09:08:51;;;;;;;;;;;;;;;;;;7372991;19;767;-61
2022/11/09 09:11:20;;;;;;;;;;;;;;;;;;7376415;19;1836;-62
2022/11/09 09:13:48;;;;;;;;;;;;;;;;;;7373809;19;869;-62
2022/11/09 09:16:16;;;;;;;;;;;;;;;;;;7373429;19;811;-61
2022/11/09 09:18:44;;;;;;;;;;;;;;;;;;7370609;19;1846;-63
2022/11/09 09:21:12;;;;;;;;;;;;;;;;;;7371393;19;1298;-61
2022/11/09 09:23:40;;;;;;;;;;;;;;;;;;7371929;19;846;-65
2022/11/09 09:26:08;;;;;;;;;;;;;;;;;;7372466;19;784;-63
2022/11/09 09:28:36;;;;;;;;;;;;;;;;;;7373748;19;1835;-66
2022/11/09 09:31:05;;;;;;;;;;;;;;;;;;7371630;19;1349;-66
2022/11/09 09:33:33;;;;;;;;;;;;;;;;;;7371529;19;791;-63
2022/11/09 09:36:01;;;;;;;;;;;;;;;;;;7372056;19;800;-62
2022/11/09 09:38:29;;;;;;;;;;;;;;;;;;7370337;19;1820;-64
2022/11/09 09:40:58;;;;;;;;;;;;;;;;;;7372924;19;1782;-62
2022/11/09 09:43:26;;;;;;;;;;;;;;;;;;7371768;19;735;-62
2022/11/09 09:45:54;;;;;;;;;;;;;;;;;;7377564;19;1013;-65
2022/11/09 09:48:22;;;;;;;;;;;;;;;;;;7376756;19;771;-64
2022/11/09 09:50:53;;;;;;;;;;;;;;;;;;7375279;19;1274;-62
2022/11/09 09:53:21;;;;;;;;;;;;;;;;;;7377973;19;1446;-60
2022/11/09 09:55:50;;;;;;;;;;;;;;;;;;7371435;19;870;-63
2022/11/09 09:58:18;;;;;;;;;;;;;;;;;;7367484;19;1867;-61
2022/11/09 10:00:46;;;;;;;;;;;;;;;;;;7370063;19;1344;-62
2022/11/09 10:03:14;;;;;;;;;;;;;;;;;;7371569;19;819;-65
2022/11/09 10:05:42;;;;;;;;;;;;;;;;;;7368866;19;807;-65
2022/11/09 10:08:10;;;;;;;;;;;;;;;;;;7371503;19;2008;-63
2022/11/09 10:10:39;;;;;;;;;;;;;;;;;;7372912;19;2037;-63
2022/11/09 10:13:07;;;;;;;;;;;;;;;;;;7370987;19;742;-62
2022/11/09 10:15:35;;;;;;;;;;;;;;;;;;7371409;19;1801;-63
2022/11/09 10:18:03;;;;;;;;;;;;;;;;;;7372919;19;1853;-60
2022/11/09 10:20:31;;;;;;;;;;;;;;;;;;7371585;19;1610;-63
2022/11/09 10:23:00;;;;;;;;;;;;;;;;;;7373029;19;1681;-58
2022/11/09 10:25:28;;;;;;;;;;;;;;;;;;7375003;19;1871;-62
2022/11/09 10:27:56;;;;;;;;;;;;;;;;;;7370082;19;839;-63
2022/11/09 10:30:24;;;;;;;;;;;;;;;;;;7369563;19;1248;-63
2022/11/09 10:32:52;;;;;;;;;;;;;;;;;;7372740;19;1789;-65
2022/11/09 10:35:21;;;;;;;;;;;;;;;;;;7370469;19;858;-64
2022/11/09 10:37:49;;;;;;;;;;;;;;;;;;7368513;19;1845;-64
2022/11/09 10:40:17;;;;;;;;;;;;;;;;;;7369473;19;1349;-60
2022/11/09 10:43:04;;;;;;;;;;;;;;;;;;7370625;19;837;-62
2022/11/09 10:45:51;;;;;;;;;;;;;;;;;;7370957;19;838;-65
2022/11/09 10:48:38;;;;;;;;;;;;;;;;;;7373616;19;1657;-62
2022/11/09 10:51:25;;;;;;;;;;;;;;;;;;7367852;19;1305;-66
2022/11/09 10:54:12;;;;;;;;;;;;;;;;;;7370518;19;712;-65
2022/11/09 10:56:59;;;;;;;;;;;;;;;;;;7370741;19;726;-64
2022/11/09 10:59:45;;;;;;;;;;;;;;;;;;7367266;19;1868;-62
2022/11/09 11:02:32;;;;;;;;;;;;;;;;;;7372884;19;1780;-64
2022/11/09 11:05:19;;;;;;;;;;;;;;;;;;7370164;19;802;-65
2022/11/09 11:08:06;;;;;;;;;;;;;;;;;;7370288;19;792;-66
2022/11/09 11:10:52;;;;;;;;;;;;;;;;;;7368863;19;1408;-62
2022/11/09 11:13:39;;;;;;;;;;;;;;;;;;7368649;19;759;-65
2022/11/09 11:16:26;;;;;;;;;;;;;;;;;;7369451;19;737;-65
2022/11/09 11:19:13;;;;;;;;;;;;;;;;;;7369087;19;1857;-64
2022/11/09 11:22:00;;;;;;;;;;;;;;;;;;7366647;19;1385;-66
2022/11/09 11:24:47;;;;;;;;;;;;;;;;;;7369597;19;743;-65
2022/11/09 11:27:34;;;;;;;;;;;;;;;;;;7369296;19;695;-67
2022/11/09 11:30:21;;;;;;;;;;;;;;;;;;7368055;19;1393;-65
2022/11/09 11:33:08;;;;;;;;;;;;;;;;;;7369762;19;754;-66
2022/11/09 11:35:55;;;;;;;;;;;;;;;;;;7373787;19;1812;-66
2022/11/09 11:38:41;;;;;;;;;;;;;;;;;;7367139;19;1840;-64
2022/11/09 11:41:28;;;;;;;;;;;;;;;;;;7367450;19;1371;-67
2022/11/09 11:44:15;;;;;;;;;;;;;;;;;;7368946;19;859;-63
2022/11/09 11:47:02;;;;;;;;;;;;;;;;;;7369316;19;707;-60
2022/11/09 11:49:49;;;;;;;;;;;;;;;;;;7371079;19;1784;-64
2022/11/09 11:52:36;;;;;;;;;;;;;;;;;;7369174;19;1761;-64
2022/11/09 11:55:23;;;;;;;;;;;;;;;;;;7368142;19;742;-66
2022/11/09 11:58:12;;;;;;;;;;;;;;;;;;7365622;19;1826;-62
2022/11/09 12:00:59;;;;;;;;;;;;;;;;;;7366340;19;1366;-60
2022/11/09 12:03:46;;;;;;;;;;;;;;;;;;7372462;19;1811;-56
2022/11/09 12:06:33;;;;;;;;;;;;;;;;;;7368207;19;711;-65
2022/11/09 12:09:20;;;;;;;;;;;;;;;;;;7372687;19;723;-59
2022/11/09 12:12:07;;;;;;;;;;;;;;;;;;7364701;19;1776;-66
2022/11/09 12:14:54;;;;;;;;;;;;;;;;;;7370849;19;1688;-58
2022/11/09 12:17:41;;;;;;;;;;;;;;;;;;7368474;19;1568;-63
2022/11/09 12:20:28;;;;;;;;;;;;;;;;;;7366714;19;1320;-62
2022/11/09 12:23:14;;;;;;;;;;;;;;;;;;7367290;19;709;-62
2022/11/09 12:26:01;;;;;;;;;;;;;;;;;;7368205;19;791;-59
2022/11/09 12:28:48;;;;;;;;;;;;;;;;;;7364345;19;767;-62
2022/11/09 12:31:35;;;;;;;;;;;;;;;;;;7364687;19;1333;-63
2022/11/09 12:34:22;;;;;;;;;;;;;;;;;;7367575;19;770;-64
2022/11/09 12:37:09;;;;;;;;;;;;;;;;;;7367488;19;1840;-65
2022/11/09 12:39:56;;;;;;;;;;;;;;;;;;7363948;19;1845;-65
2022/11/09 12:42:43;;;;;;;;;;;;;;;;;;7366417;19;767;-64
2022/11/09 12:45:30;;;;;;;;;;;;;;;;;;7366556;19;782;-57
2022/11/09 12:48:17;;;;;;;;;;;;;;;;;;7366588;19;777;-65
2022/11/09 12:51:03;;;;;;;;;;;;;;;;;;7365308;19;2085;-63
2022/11/09 12:53:50;;;;;;;;;;;;;;;;;;7371959;19;1671;-67
2022/11/09 12:56:37;;;;;;;;;;;;;;;;;;7367336;19;691;-63
2022/11/09 12:59:24;;;;;;;;;;;;;;;;;;7366772;19;1846;-60
2022/11/09 13:02:11;;;;;;;;;;;;;;;;;;7371716;19;579;-60
2022/11/09 13:04:57;;;;;;;;;;;;;;;;;;7371225;19;694;-62
2022/11/09 13:07:45;;;;;;;;;;;;;;;;;;7372191;19;1608;-67
2022/11/09 13:10:33;;;;;;;;;;;;;;;;;;7368859;19;1340;-64
2022/11/09 13:13:21;;;;;;;;;;;;;;;;;;7369054;19;647;-64
2022/11/09 13:16:07;;;;;;;;;;;;;;;;;;7367993;19;767;-62
2022/11/09 13:18:54;;;;;;;;;;;;;;;;;;7366047;19;1841;-62
2022/11/09 13:21:41;;;;;;;;;;;;;;;;;;7365087;19;1349;-61
2022/11/09 13:24:28;;;;;;;;;;;;;;;;;;7366124;19;844;-63
2022/11/09 13:27:14;;;;;;;;;;;;;;;;;;7369739;19;919;-63
2022/11/09 13:30:01;;;;;;;;;;;;;;;;;;7365506;19;1290;-65
2022/11/09 13:32:48;;;;;;;;;;;;;;;;;;7368170;19;1751;-64
2022/11/09 13:35:35;;;;;;;;;;;;;;;;;;7366126;19;758;-65
2022/11/09 13:38:22;;;;;;;;;;;;;;;;;;7367419;19;1807;-67
2022/11/09 13:41:09;;;;;;;;;;;;;;;;;;7377357;19;1318;-64
2022/11/09 13:43:55;;;;;;;;;;;;;;;;;;7380409;19;782;-65
2022/11/09 13:46:42;;;;;;;;;;;;;;;;;;7378957;19;774;-65
2022/11/09 13:49:29;;;;;;;;;;;;;;;;;;7378469;19;715;-64
2022/11/09 13:52:16;;;;;;;;;;;;;;;;;;7379617;19;1776;-64
2022/11/09 13:55:03;;;;;;;;;;;;;;;;;;7376203;19;934;-63
2022/11/09 13:57:50;;;;;;;;;;;;;;;;;;7375359;19;1717;-65
2022/11/09 14:00:36;;;;;;;;;;;;;;;;;;7373067;19;1821;-64
2022/11/09 14:03:23;;;;;;;;;;;;;;;;;;7372369;19;744;-62
2022/11/09 14:06:10;;;;;;;;;;;;;;;;;;7371865;19;680;-66
2022/11/09 14:08:57;;;;;;;;;;;;;;;;;;7370696;19;746;-64
2022/11/09 14:11:43;;;;;;;;;;;;;;;;;;7369996;19;1294;-63
2022/11/09 14:14:30;;;;;;;;;;;;;;;;;;7371785;19;744;-61
2022/11/09 14:17:17;;;;;;;;;;;;;;;;;;7370865;19;726;-63
2022/11/09 14:20:03;;;;;;;;;;;;;;;;;;7369922;19;1845;-61
2022/11/09 14:22:50;;;;;;;;;;;;;;;;;;7375344;19;1639;-64
2022/11/09 14:25:37;;;;;;;;;;;;;;;;;;7374080;19;1808;-63
2022/11/09 14:28:24;;;;;;;;;;;;;;;;;;7374333;19;1543;-64
2022/11/09 14:31:11;;;;;;;;;;;;;;;;;;7369224;19;1349;-66
2022/11/09 14:33:58;;;;;;;;;;;;;;;;;;7371028;19;715;-63
2022/11/09 14:36:45;;;;;;;;;;;;;;;;;;7373193;19;1815;-60
2022/11/09 14:39:32;;;;;;;;;;;;;;;;;;7373476;19;2093;-56
2022/11/09 14:42:19;;;;;;;;;;;;;;;;;;7369670;19;1705;-67
2022/11/09 14:45:06;;;;;;;;;;;;;;;;;;7374996;19;1658;-65
2022/11/09 14:47:53;;;;;;;;;;;;;;;;;;7374189;19;724;-62
2022/11/09 14:50:40;;;;;;;;;;;;;;;;;;7370258;19;1392;-67
2022/11/09 14:53:27;;;;;;;;;;;;;;;;;;7369692;19;1796;-66
2022/11/09 14:56:14;;;;;;;;;;;;;;;;;;7374928;19;1472;-63
2022/11/09 14:59:01;;;;;;;;;;;;;;;;;;7368617;19;1842;-66
2022/11/09 15:01:48;;;;;;;;;;;;;;;;;;7367997;19;1342;-64
2022/11/09 15:04:35;;;;;;;;;;;;;;;;;;7370878;19;916;-62
2022/11/09 15:07:21;;;;;;;;;;;;;;;;;;7370238;19;789;-61
2022/11/09 15:10:09;;;;;;;;;;;;;;;;;;7373752;19;1342;-64
2022/11/09 15:12:56;;;;;;;;;;;;;;;;;;7372221;19;1547;-61
2022/11/09 15:15:43;;;;;;;;;;;;;;;;;;7369587;19;793;-60
2022/11/09 15:18:30;;;;;;;;;;;;;;;;;;7369270;19;736;-65
2022/11/09 15:21:17;;;;;;;;;;;;;;;;;;7367436;19;1381;-66
2022/11/09 15:24:04;;;;;;;;;;;;;;;;;;7370407;19;760;-64
2022/11/09 15:26:51;;;;;;;;;;;;;;;;;;7369462;19;746;-64
2022/11/09 15:29:38;;;;;;;;;;;;;;;;;;7368181;19;765;-63
2022/11/09 15:32:25;;;;;;;;;;;;;;;;;;7369163;19;940;-64
2022/11/09 15:35:12;;;;;;;;;;;;;;;;;;7369823;19;769;-64
2022/11/09 15:37:59;;;;;;;;;;;;;;;;;;7369474;19;726;-66
2022/11/09 15:40:46;;;;;;;;;;;;;;;;;;7366174;19;1830;-64
2022/11/09 15:43:32;;;;;;;;;;;;;;;;;;7371762;19;2059;-65
2022/11/09 15:46:19;;;;;;;;;;;;;;;;;;7368525;19;799;-64
2022/11/09 15:49:06;;;;;;;;;;;;;;;;;;7369574;19;949;-60
2022/11/09 15:51:53;;;;;;;;;;;;;;;;;;7369070;19;1547;-61
2022/11/09 15:54:39;;;;;;;;;;;;;;;;;;7372093;19;1788;-66
2022/11/09 15:57:26;;;;;;;;;;;;;;;;;;7369872;19;776;-65
2022/11/09 16:00:13;;;;;;;;;;;;;;;;;;7367869;19;1841;-64
2022/11/09 16:03:00;;;;;;;;;;;;;;;;;;7368317;19;749;-63
2022/11/09 16:05:47;;;;;;;;;;;;;;;;;;7367389;19;724;-61
2022/11/09 16:08:34;;;;;;;;;;;;;;;;;;7370157;19;1826;-62
2022/11/09 16:11:20;;;;;;;;;;;;;;;;;;7365555;19;1259;-59
2022/11/09 16:14:07;;;;;;;;;;;;;;;;;;7371869;19;1793;-64
2022/11/09 16:16:54;;;;;;;;;;;;;;;;;;7368274;19;713;-64
2022/11/09 16:19:42;;;;;;;;;;;;;;;;;;7366638;19;1857;-64
2022/11/09 16:22:28;;;;;;;;;;;;;;;;;;7367670;19;747;-64
2022/11/09 16:25:15;;;;;;;;;;;;;;;;;;7367081;19;791;-64
2022/11/09 16:28:02;;;;;;;;;;;;;;;;;;7367335;19;801;-68
2022/11/09 16:30:49;;;;;;;;;;;;;;;;;;7367086;19;1844;-64
2022/11/09 16:33:36;;;;;;;;;;;;;;;;;;7368077;19;612;-58
2022/11/09 16:36:23;;;;;;;;;;;;;;;;;;7367055;19;961;-65
2022/11/09 16:39:11;;;;;;;;;;;;;;;;;;7366624;19;1838;-63
2022/11/09 16:42:00;;;;;;;;;;;;;;;;;;7364669;19;1399;-63
2022/11/09 16:44:47;;;;;;;;;;;;;;;;;;7371588;19;774;-65
2022/11/09 16:47:33;;;;;;;;;;;;;;;;;;7366215;19;783;-61
2022/11/09 16:50:20;;;;;;;;;;;;;;;;;;7366618;19;1341;-67
2022/11/09 16:53:07;;;;;;;;;;;;;;;;;;7366215;19;708;-64
2022/11/09 16:55:53;;;;;;;;;;;;;;;;;;7366531;19;752;-63
2022/11/09 16:58:40;;;;;;;;;;;;;;;;;;7366660;19;758;-61
2022/11/09 17:01:27;;;;;;;;;;;;;;;;;;7364376;19;1845;-64
2022/11/09 17:04:14;;;;;;;;;;;;;;;;;;7366305;19;624;-63
2022/11/09 17:07:01;;;;;;;;;;;;;;;;;;7366529;19;763;-60
2022/11/09 17:09:47;;;;;;;;;;;;;;;;;;7365074;19;1294;-61
2022/11/09 17:12:34;;;;;;;;;;;;;;;;;;7365705;19;1795;-63
2022/11/09 17:15:21;;;;;;;;;;;;;;;;;;7368231;19;779;-61
2022/11/09 17:18:08;;;;;;;;;;;;;;;;;;7370961;19;711;-62
2022/11/09 17:20:55;;;;;;;;;;;;;;;;;;7370611;19;1845;-62
2022/11/09 17:23:43;;;;;;;;;;;;;;;;;;7371644;19;716;-60
2022/11/09 17:26:29;;;;;;;;;;;;;;;;;;7376864;19;772;-61
2022/11/09 17:29:16;;;;;;;;;;;;;;;;;;7374405;19;1819;-63
2022/11/09 17:32:03;;;;;;;;;;;;;;;;;;7373623;19;1748;-58
2022/11/09 17:34:50;;;;;;;;;;;;;;;;;;7372263;19;849;-60
2022/11/09 17:37:37;;;;;;;;;;;;;;;;;;7375899;19;1543;-64
2022/11/09 17:40:24;;;;;;;;;;;;;;;;;;7375622;19;1825;-61
2022/11/09 17:43:10;;;;;;;;;;;;;;;;;;7372700;19;703;-61
2022/11/09 17:45:57;;;;;;;;;;;;;;;;;;7373460;19;1790;-56
2022/11/09 17:48:44;;;;;;;;;;;;;;;;;;7372472;19;1560;-54
2022/11/09 17:51:31;;;;;;;;;;;;;;;;;;7371255;19;1349;-62
2022/11/09 17:54:18;;;;;;;;;;;;;;;;;;7373265;19;662;-62
2022/11/09 17:57:05;;;;;;;;;;;;;;;;;;7374476;19;950;-63
2022/11/09 17:59:52;;;;;;;;;;;;;;;;;;7371668;19;1842;-64
2022/11/09 18:02:39;;;;;;;;;;;;;;;;;;7372658;19;874;-67
2022/11/09 18:05:25;;;;;;;;;;;;;;;;;;7373489;19;717;-63
2022/11/09 18:08:13;;;;;;;;;;;;;;;;;;7374234;19;1698;-62
2022/11/09 18:11:00;;;;;;;;;;;;;;;;;;7377186;19;1270;-64